Time;durP1;ratioP1;P1;durP2;ratioP2;P2;SDS_P1;SDS_P2;PMS_P1;PMS_P2;Temp;Humidity;BMP_temperature;BMP_pressure;BME280_temperature;BME280_humidity;BME280_pressure;Samples;Min_cycle;Max_cycle;Signal;HPM_P1;HPM_P2
2022/03/29 00:00:43;;;;;;;58.72;40.63;;;28.00;99.90;;;;;;5094039;28;20071;-61
2022/03/29 00:03:10;;;;;;;54.67;41.45;;;28.10;99.90;;;;;;5096399;28;20050;-61
2022/03/29 00:05:38;;;;;;;84.10;48.20;;;28.20;99.90;;;;;;5094048;28;20042;-61
2022/03/29 00:08:05;;;;;;;65.78;48.25;;;28.20;99.90;;;;;;5094064;28;20028;-61
2022/03/29 00:10:31;;;;;;;115.15;65.63;;;28.30;99.90;;;;;;5094116;28;20416;-61
2022/03/29 00:12:58;;;;;;;229.52;198.73;;;28.30;99.90;;;;;;5107680;28;20034;-60
2022/03/29 00:15:25;;;;;;;248.43;204.43;;;28.30;99.90;;;;;;5094457;28;20063;-61
2022/03/29 00:17:51;;;;;;;254.13;190.30;;;28.40;99.90;;;;;;5093915;28;20081;-61
2022/03/29 00:20:19;;;;;;;171.27;121.35;;;28.40;99.90;;;;;;5097358;28;20027;-61
2022/03/29 00:22:50;;;;;;;108.80;72.25;;;28.40;99.90;;;;;;5114421;28;20028;-60
2022/03/29 00:25:18;;;;;;;78.57;53.43;;;28.40;99.90;;;;;;5099446;28;20109;-61
2022/03/29 00:27:45;;;;;;;69.05;47.97;;;28.40;99.90;;;;;;5112573;28;20023;-61
2022/03/29 00:30:13;;;;;;;62.40;44.60;;;28.50;99.90;;;;;;5092453;28;20374;-61
2022/03/29 00:32:40;;;;;;;67.68;49.08;;;28.50;99.90;;;;;;5114272;28;20056;-60
2022/03/29 00:35:09;;;;;;;67.40;47.22;;;28.60;99.90;;;;;;5107033;28;20024;-61
2022/03/29 00:37:37;;;;;;;128.40;78.95;;;28.60;99.90;;;;;;5098936;28;20034;-61
2022/03/29 00:40:06;;;;;;;61.90;45.05;;;28.60;99.90;;;;;;5098422;28;20028;-61
2022/03/29 00:42:32;;;;;;;67.55;46.22;;;28.60;99.90;;;;;;5107775;28;20019;-61
2022/03/29 00:44:59;;;;;;;71.72;50.83;;;28.70;99.90;;;;;;5094581;28;20038;-61
2022/03/29 00:47:26;;;;;;;61.35;45.25;;;28.70;99.90;;;;;;5104760;28;20102;-61
2022/03/29 00:49:52;;;;;;;63.13;44.38;;;28.70;99.90;;;;;;5113825;28;20027;-61
2022/03/29 00:52:20;;;;;;;56.38;43.38;;;28.80;99.90;;;;;;5100378;28;20074;-61
2022/03/29 00:54:48;;;;;;;59.88;42.80;;;28.80;99.90;;;;;;5106944;28;20520;-61
2022/03/29 00:57:15;;;;;;;57.17;42.28;;;28.80;99.90;;;;;;5110969;28;20032;-60
2022/03/29 00:59:44;;;;;;;57.20;43.03;;;28.70;99.90;;;;;;5101474;28;20028;-60
2022/03/29 01:02:10;;;;;;;61.90;42.95;;;28.70;99.90;;;;;;5094684;28;20110;-60
2022/03/29 01:04:37;;;;;;;54.78;41.22;;;28.70;99.90;;;;;;5114044;28;20024;-61
2022/03/29 01:07:05;;;;;;;56.08;40.95;;;28.70;99.90;;;;;;5118215;28;20020;-60
2022/03/29 01:09:33;;;;;;;59.42;44.53;;;28.80;99.90;;;;;;5102006;28;20024;-60
2022/03/29 01:12:00;;;;;;;60.00;43.22;;;28.80;99.90;;;;;;5097318;28;20426;-60
2022/03/29 01:14:28;;;;;;;56.92;41.67;;;28.90;99.90;;;;;;5096061;28;20609;-61
2022/03/29 01:19:35;;;;;;;52.88;41.10;;;29.00;99.90;;;;;;5103558;28;20041;-61
2022/03/29 01:22:05;;;;;;;83.10;64.38;;;29.10;99.90;;;;;;5107166;28;20034;-60
2022/03/29 01:24:34;;;;;;;72.97;55.70;;;29.10;99.90;;;;;;5103011;28;20047;-62
2022/03/29 01:27:04;;;;;;;74.82;55.05;;;29.20;99.90;;;;;;5107213;28;20024;-61
2022/03/29 01:29:32;;;;;;;58.47;44.72;;;29.30;99.90;;;;;;5104436;28;20099;-60
2022/03/29 01:32:02;;;;;;;76.18;55.85;;;29.40;99.90;;;;;;5106361;28;20106;-60
2022/03/29 01:34:30;;;;;;;109.40;80.60;;;29.50;99.90;;;;;;5095644;28;20038;-62
2022/03/29 01:36:57;;;;;;;223.32;169.80;;;29.50;99.90;;;;;;5105802;28;20026;-62
2022/03/29 01:39:23;;;;;;;190.82;145.27;;;29.60;99.90;;;;;;5106922;28;20028;-61
2022/03/29 01:41:51;;;;;;;82.38;62.95;;;29.60;99.90;;;;;;5103686;27;20111;-61
2022/03/29 01:44:17;;;;;;;76.32;56.47;;;29.60;99.90;;;;;;5106438;28;20055;-63
2022/03/29 01:46:44;;;;;;;121.55;81.32;;;29.60;99.90;;;;;;5104674;28;20377;-60
2022/03/29 01:49:12;;;;;;;74.95;54.55;;;29.70;99.90;;;;;;5101730;28;20032;-63
2022/03/29 01:51:38;;;;;;;71.68;53.00;;;29.70;99.90;;;;;;5102999;28;20386;-61
2022/03/29 01:54:05;;;;;;;80.22;57.15;;;29.90;99.90;;;;;;5108794;28;20031;-62
2022/03/29 01:56:34;;;;;;;71.88;54.15;;;29.90;99.90;;;;;;5106643;28;20035;-62
2022/03/29 01:59:06;;;;;;;47.35;35.40;;;30.00;99.90;;;;;;5096086;28;20024;-61
2022/03/29 02:01:50;;;;;;;36.20;29.63;;;30.10;99.90;;;;;;5107226;28;20027;-64
2022/03/29 02:04:17;;;;;;;53.15;39.30;;;30.30;99.90;;;;;;5106949;28;20035;-64
2022/03/29 02:06:44;;;;;;;46.65;38.63;;;30.40;99.90;;;;;;5100125;28;20544;-61
2022/03/29 02:09:11;;;;;;;48.35;38.03;;;30.40;99.90;;;;;;5100806;28;20039;-61
2022/03/29 02:11:41;;;;;;;41.05;31.98;;;30.60;99.90;;;;;;5102474;28;20039;-63
2022/03/29 02:14:08;;;;;;;29.90;22.30;;;30.70;99.90;;;;;;5114113;28;20058;-62
2022/03/29 02:16:36;;;;;;;29.30;24.10;;;30.80;99.90;;;;;;5114763;28;20024;-63
2022/03/29 02:19:03;;;;;;;37.28;30.20;;;30.90;99.90;;;;;;5116515;28;20094;-62
2022/03/29 02:21:29;;;;;;;30.50;24.92;;;30.90;99.90;;;;;;5113309;28;20511;-61
2022/03/29 02:23:56;;;;;;;40.53;31.08;;;30.90;99.90;;;;;;5114302;28;20067;-62
2022/03/29 02:26:23;;;;;;;34.92;23.15;;;30.80;99.90;;;;;;5112647;28;20028;-62
2022/03/29 02:28:49;;;;;;;91.03;65.97;;;30.80;99.90;;;;;;5113069;28;20070;-62
2022/03/29 02:31:16;;;;;;;57.80;40.05;;;30.70;99.90;;;;;;5114769;28;20024;-62
2022/03/29 02:33:43;;;;;;;33.47;25.65;;;30.80;99.90;;;;;;5111270;28;20024;-62
2022/03/29 02:36:12;;;;;;;64.93;49.97;;;30.80;99.90;;;;;;5112837;28;20103;-62
2022/03/29 02:38:39;;;;;;;27.48;20.95;;;30.90;99.90;;;;;;5113854;28;20051;-65
2022/03/29 02:41:06;;;;;;;39.75;25.95;;;30.90;99.90;;;;;;5111380;28;20084;-63
2022/03/29 02:43:33;;;;;;;95.88;73.22;;;31.00;99.90;;;;;;5104341;28;20036;-62
2022/03/29 02:46:00;;;;;;;51.20;42.20;;;31.10;99.90;;;;;;5107094;28;20027;-63
2022/03/29 02:48:26;;;;;;;22.25;18.65;;;31.20;99.90;;;;;;5109945;28;20511;-64
2022/03/29 02:50:53;;;;;;;21.83;16.13;;;31.10;99.90;;;;;;5106381;28;20052;-63
2022/03/29 02:53:20;;;;;;;26.80;18.70;;;31.00;99.90;;;;;;5106349;28;20132;-66
2022/03/29 02:55:46;;;;;;;27.02;17.67;;;31.00;99.90;;;;;;5105051;28;20028;-63
2022/03/29 02:58:13;;;;;;;27.58;17.52;;;31.10;99.90;;;;;;5101220;28;20099;-63
2022/03/29 03:00:40;;;;;;;24.67;17.10;;;31.00;99.90;;;;;;5098555;28;20028;-67
2022/03/29 03:03:07;;;;;;;25.80;19.40;;;31.00;99.90;;;;;;5102913;28;20032;-65
2022/03/29 03:05:33;;;;;;;25.00;17.25;;;31.00;99.90;;;;;;5101987;28;20025;-63
2022/03/29 03:08:00;;;;;;;38.72;28.83;;;31.00;99.90;;;;;;5103694;28;20020;-64
2022/03/29 03:10:27;;;;;;;47.80;33.75;;;31.10;99.90;;;;;;5106240;28;20086;-64
2022/03/29 03:12:54;;;;;;;88.28;54.38;;;31.20;99.90;;;;;;5102222;28;20050;-63
2022/03/29 03:15:25;;;;;;;40.67;29.42;;;31.20;99.90;;;;;;5103662;28;20486;-63
2022/03/29 03:17:54;;;;;;;69.60;53.72;;;31.30;99.90;;;;;;5103017;28;20367;-63
2022/03/29 03:20:21;;;;;;;35.80;24.67;;;31.30;99.90;;;;;;5103240;28;20470;-63
2022/03/29 03:22:49;;;;;;;30.83;19.70;;;31.50;99.90;;;;;;5106466;28;20337;-63
2022/03/29 03:25:16;;;;;;;27.73;19.58;;;31.60;99.90;;;;;;5108015;28;20019;-64
2022/03/29 03:27:43;;;;;;;25.02;17.83;;;31.70;99.90;;;;;;5099411;28;20120;-63
2022/03/29 03:30:13;;;;;;;25.10;17.15;;;31.70;99.90;;;;;;5097471;28;20035;-63
2022/03/29 03:32:41;;;;;;;29.88;20.25;;;31.80;99.90;;;;;;5104165;28;20023;-63
2022/03/29 03:35:10;;;;;;;21.17;17.73;;;32.00;99.90;;;;;;5109913;28;20482;-62
2022/03/29 03:37:37;;;;;;;19.17;17.15;;;32.20;99.90;;;;;;5108813;28;20136;-64
2022/03/29 03:40:05;;;;;;;25.88;18.58;;;32.20;99.90;;;;;;5103742;28;20049;-63
2022/03/29 03:42:32;;;;;;;37.13;22.02;;;32.20;99.90;;;;;;5108506;28;20020;-62
2022/03/29 03:44:59;;;;;;;23.95;18.30;;;32.20;99.90;;;;;;5105404;28;20019;-63
2022/03/29 03:47:26;;;;;;;38.88;26.58;;;32.20;99.90;;;;;;5098127;27;20023;-62
2022/03/29 03:49:53;;;;;;;33.80;22.95;;;32.10;99.90;;;;;;5113384;28;20027;-63
2022/03/29 03:52:20;;;;;;;30.08;23.33;;;32.10;99.90;;;;;;5104150;28;20489;-64
2022/03/29 03:54:46;;;;;;;24.50;19.27;;;32.20;99.90;;;;;;5106563;28;20031;-62
2022/03/29 03:57:13;;;;;;;24.17;18.45;;;32.20;99.90;;;;;;5104383;28;20023;-66
2022/03/29 03:59:40;;;;;;;30.88;20.40;;;32.30;99.90;;;;;;5103235;28;20032;-66
2022/03/29 04:02:07;;;;;;;26.88;18.15;;;32.30;99.90;;;;;;5102079;28;20485;-65
2022/03/29 04:04:34;;;;;;;26.95;18.77;;;32.30;99.90;;;;;;5104127;28;20036;-66
2022/03/29 04:07:00;;;;;;;26.95;18.65;;;32.40;99.90;;;;;;5106948;28;20430;-63
2022/03/29 04:09:28;;;;;;;24.70;20.27;;;32.30;99.90;;;;;;5101496;28;20039;-64
2022/03/29 04:11:55;;;;;;;28.92;20.98;;;32.30;99.90;;;;;;5097322;28;20024;-62
2022/03/29 04:14:22;;;;;;;22.98;19.80;;;32.20;99.90;;;;;;5105527;28;20016;-63
2022/03/29 04:16:48;;;;;;;30.17;23.00;;;32.20;99.90;;;;;;5102056;28;20481;-62
2022/03/29 04:19:15;;;;;;;27.52;20.90;;;32.20;99.90;;;;;;5101948;28;20043;-62
2022/03/29 04:21:42;;;;;;;25.17;19.98;;;32.20;99.90;;;;;;5102140;28;20496;-62
2022/03/29 04:24:08;;;;;;;28.60;19.92;;;32.30;99.90;;;;;;5103237;28;20036;-62
2022/03/29 04:26:35;;;;;;;29.48;20.80;;;32.50;99.90;;;;;;5104249;28;20039;-61
2022/03/29 04:29:02;;;;;;;34.20;20.90;;;32.60;99.90;;;;;;5102714;28;20020;-62
2022/03/29 04:31:29;;;;;;;27.45;20.63;;;32.70;99.40;;;;;;5102471;28;20458;-62
2022/03/29 04:33:56;;;;;;;28.67;19.27;;;32.60;98.90;;;;;;5095433;28;20061;-61
2022/03/29 04:36:23;;;;;;;32.10;21.88;;;32.60;98.40;;;;;;5100057;28;20245;-62
2022/03/29 04:38:50;;;;;;;28.08;19.40;;;32.60;98.40;;;;;;5103789;28;20054;-63
2022/03/29 04:41:16;;;;;;;31.95;19.70;;;32.70;98.90;;;;;;5108189;28;20019;-63
2022/03/29 04:43:43;;;;;;;36.13;27.25;;;32.70;96.40;;;;;;5104820;28;20034;-63
2022/03/29 04:46:10;;;;;;;43.85;28.80;;;32.80;96.30;;;;;;5104159;28;20034;-63
2022/03/29 04:48:37;;;;;;;46.30;29.38;;;32.80;96.60;;;;;;5098863;28;20393;-62
2022/03/29 04:51:04;;;;;;;32.50;22.67;;;32.90;96.70;;;;;;5098474;28;20036;-62
2022/03/29 04:53:30;;;;;;;26.92;20.00;;;32.90;96.90;;;;;;5098841;28;20468;-61
2022/03/29 04:55:57;;;;;;;25.30;20.00;;;32.90;97.10;;;;;;5107885;28;20550;-62
2022/03/29 04:58:25;;;;;;;27.42;18.60;;;32.90;96.50;;;;;;5104148;28;20036;-63
2022/03/29 05:00:52;;;;;;;23.77;17.27;;;32.90;94.80;;;;;;5098847;28;20035;-63
2022/03/29 05:03:19;;;;;;;21.77;16.98;;;32.90;94.50;;;;;;5100353;28;20024;-62
2022/03/29 05:05:46;;;;;;;28.30;18.73;;;32.90;94.10;;;;;;5108390;28;20019;-62
2022/03/29 05:08:12;;;;;;;39.17;25.45;;;32.90;94.50;;;;;;5103653;28;20115;-63
2022/03/29 05:10:39;;;;;;;32.92;22.77;;;32.90;94.70;;;;;;5098864;28;20027;-62
2022/03/29 05:13:07;;;;;;;32.60;22.60;;;32.90;94.90;;;;;;5105224;28;20081;-63
2022/03/29 05:15:34;;;;;;;38.30;28.02;;;32.90;95.20;;;;;;5096755;28;20421;-63
2022/03/29 05:18:00;;;;;;;27.60;19.80;;;32.90;95.50;;;;;;5094366;28;20103;-62
2022/03/29 05:20:27;;;;;;;31.05;19.60;;;32.80;95.10;;;;;;5103947;28;20031;-62
2022/03/29 05:22:55;;;;;;;33.78;19.10;;;32.90;94.20;;;;;;5102172;28;20493;-62
2022/03/29 05:25:26;;;;;;;39.85;23.80;;;33.00;94.10;;;;;;5106564;28;20070;-61
2022/03/29 05:27:53;;;;;;;26.65;19.08;;;33.10;94.30;;;;;;5104554;28;20085;-62
2022/03/29 05:30:21;;;;;;;28.60;17.85;;;33.10;94.00;;;;;;5089082;22;20050;-62
2022/03/29 05:32:51;;;;;;;32.30;19.67;;;33.30;94.00;;;;;;5042421;28;20025;-63
2022/03/29 05:35:18;;;;;;;24.83;17.60;;;33.30;93.50;;;;;;5047733;28;20025;-62
2022/03/29 05:37:44;;;;;;;27.27;17.02;;;33.40;93.20;;;;;;5049561;28;20017;-63
2022/03/29 05:40:12;;;;;;;20.63;16.45;;;33.50;93.00;;;;;;5050655;28;20037;-63
2022/03/29 05:42:43;;;;;;;29.85;17.23;;;33.50;92.00;;;;;;5045121;28;20427;-62
2022/03/29 05:45:12;;;;;;;22.33;15.85;;;33.50;91.50;;;;;;5033934;28;20112;-64
2022/03/29 05:50:09;;;;;;;26.95;16.08;;;33.70;90.80;;;;;;5042408;28;20026;-63
2022/03/29 05:52:37;;;;;;;25.90;15.60;;;33.70;90.80;;;;;;5036692;28;20036;-63
2022/03/29 05:55:04;;;;;;;28.13;15.50;;;33.80;89.70;;;;;;5036725;28;20034;-62
2022/03/29 05:57:31;;;;;;;28.60;16.42;;;33.80;88.40;;;;;;5036687;28;20068;-62
2022/03/29 05:59:58;;;;;;;24.42;16.17;;;33.80;90.40;;;;;;5036463;28;20032;-62
2022/03/29 06:02:24;;;;;;;24.23;15.65;;;33.90;90.00;;;;;;5041313;28;20037;-64
2022/03/29 06:04:51;;;;;;;32.10;22.77;;;34.00;89.80;;;;;;5041325;28;20171;-62
2022/03/29 06:07:19;;;;;;;116.82;95.05;;;34.00;90.00;;;;;;5045478;28;20541;-63
2022/03/29 06:09:45;;;;;;;65.13;47.75;;;34.10;89.30;;;;;;5043285;28;20029;-63
2022/03/29 06:12:12;;;;;;;102.20;63.13;;;34.10;89.00;;;;;;5043265;28;20025;-62
2022/03/29 06:14:39;;;;;;;31.02;20.48;;;34.10;87.50;;;;;;5036827;28;20067;-65
2022/03/29 06:17:07;;;;;;;55.97;39.95;;;34.00;85.90;;;;;;5035435;28;20495;-62
2022/03/29 06:19:34;;;;;;;31.27;18.33;;;34.20;85.30;;;;;;5036460;28;20041;-64
2022/03/29 06:22:01;;;;;;;25.38;13.75;;;34.30;85.00;;;;;;5035463;28;20037;-62
2022/03/29 06:24:28;;;;;;;28.92;16.98;;;34.30;85.20;;;;;;5034747;28;20539;-62
2022/03/29 06:26:55;;;;;;;35.53;26.38;;;34.20;85.40;;;;;;5041956;28;20114;-65
2022/03/29 06:29:21;;;;;;;31.23;20.30;;;34.10;85.70;;;;;;5042695;28;20044;-64
2022/03/29 06:31:48;;;;;;;38.83;25.98;;;34.10;85.70;;;;;;5045820;28;20106;-66
2022/03/29 06:34:15;;;;;;;28.17;19.35;;;34.10;85.20;;;;;;5039804;28;20460;-63
2022/03/29 06:36:42;;;;;;;58.22;40.30;;;34.10;85.70;;;;;;5035357;28;20399;-64
2022/03/29 06:39:11;;;;;;;29.67;16.52;;;34.20;84.50;;;;;;5034885;28;20049;-65
2022/03/29 06:41:38;;;;;;;25.40;15.48;;;34.40;83.50;;;;;;5034939;28;20026;-63
2022/03/29 06:44:07;;;;;;;19.08;14.80;;;34.30;83.20;;;;;;5035222;28;20112;-65
2022/03/29 06:46:34;;;;;;;42.38;34.33;;;34.10;83.90;;;;;;5035101;28;20083;-63
2022/03/29 06:49:03;;;;;;;77.20;53.88;;;34.20;85.10;;;;;;5036266;28;20033;-64
2022/03/29 06:51:33;;;;;;;30.80;17.25;;;34.20;84.30;;;;;;5039549;28;20108;-63
2022/03/29 06:54:01;;;;;;;25.63;18.35;;;34.40;81.20;;;;;;5031166;28;20026;-63
2022/03/29 06:56:28;;;;;;;23.08;15.98;;;34.40;82.10;;;;;;5034749;28;20068;-65
2022/03/29 06:58:55;;;;;;;39.40;20.33;;;34.50;83.10;;;;;;5042228;28;20387;-64
2022/03/29 07:01:22;;;;;;;43.22;29.48;;;34.50;82.80;;;;;;5040722;28;20041;-64
2022/03/29 07:03:48;;;;;;;29.67;19.02;;;34.50;82.40;;;;;;5033387;28;20025;-64
2022/03/29 07:06:15;;;;;;;28.02;17.75;;;34.50;82.40;;;;;;5033616;28;20060;-63
2022/03/29 07:13:44;;;;;;;25.35;15.18;;;34.50;81.80;;;;;;5034080;28;20060;-64
2022/03/29 07:16:14;;;;;;;25.33;14.70;;;34.50;78.60;;;;;;5031340;28;20017;-66
2022/03/29 07:18:42;;;;;;;25.95;15.65;;;34.60;78.70;;;;;;5034377;28;20120;-65
2022/03/29 07:21:13;;;;;;;27.70;16.58;;;34.60;78.90;;;;;;5031059;28;20108;-64
2022/03/29 07:23:41;;;;;;;32.17;19.80;;;34.80;78.20;;;;;;5032853;28;20030;-62
2022/03/29 07:26:08;;;;;;;24.00;17.05;;;34.90;78.20;;;;;;5033972;28;20049;-63
2022/03/29 07:28:35;;;;;;;22.33;14.88;;;35.00;74.60;;;;;;5033941;28;20018;-63
2022/03/29 07:31:02;;;;;;;24.13;15.88;;;34.90;74.50;;;;;;5033045;28;20055;-64
2022/03/29 07:33:28;;;;;;;29.30;17.35;;;34.90;76.40;;;;;;5033578;28;20052;-63
2022/03/29 07:35:55;;;;;;;26.80;14.75;;;34.90;76.10;;;;;;5033909;28;20030;-63
2022/03/29 07:38:22;;;;;;;27.40;15.43;;;34.80;76.50;;;;;;5041975;28;20292;-63
2022/03/29 07:40:49;;;;;;;30.65;16.27;;;34.80;75.80;;;;;;5036972;28;20036;-66
2022/03/29 07:43:15;;;;;;;33.15;19.05;;;34.80;76.90;;;;;;5034140;28;20039;-63
2022/03/29 07:45:42;;;;;;;30.17;16.38;;;34.90;77.90;;;;;;5036676;28;20059;-63
2022/03/29 07:48:09;;;;;;;25.33;15.07;;;34.90;74.30;;;;;;5044802;28;20021;-66
2022/03/29 07:50:36;;;;;;;23.90;15.15;;;34.80;74.00;;;;;;5043712;28;20101;-62
2022/03/29 07:53:05;;;;;;;25.85;17.73;;;34.80;74.30;;;;;;5045123;28;20219;-64
2022/03/29 07:55:33;;;;;;;26.38;18.27;;;34.80;72.30;;;;;;5038327;28;20040;-64
2022/03/29 07:58:00;;;;;;;24.10;15.57;;;34.80;72.10;;;;;;5043294;28;20021;-63
2022/03/29 08:00:32;;;;;;;20.27;13.80;;;34.80;71.00;;;;;;5035703;28;20049;-63
2022/03/29 08:03:04;;;;;;;25.02;17.10;;;34.80;71.40;;;;;;5036379;28;20018;-64
2022/03/29 08:05:31;;;;;;;;;;;34.90;73.20;;;;;;5039198;28;20022;-64
2022/03/29 08:07:58;;;;;;;56.78;39.85;;;34.90;72.80;;;;;;5043701;28;19905;-63
2022/03/29 08:10:27;;;;;;;36.83;24.27;;;35.00;73.60;;;;;;5039535;28;20089;-64
2022/03/29 08:12:56;;;;;;;35.67;19.70;;;35.00;73.00;;;;;;5035463;28;20032;-64
2022/03/29 08:15:22;;;;;;;35.67;20.90;;;35.10;71.70;;;;;;5040187;28;20028;-66
2022/03/29 08:17:49;;;;;;;56.95;36.35;;;35.20;71.90;;;;;;5037130;28;20056;-64
2022/03/29 08:20:16;;;;;;;37.53;24.40;;;35.30;73.40;;;;;;5041635;28;20028;-66
2022/03/29 08:22:46;;;;;;;34.28;22.67;;;35.30;72.00;;;;;;5043547;28;20384;-66
2022/03/29 08:25:15;;;;;;;25.25;16.30;;;35.40;70.80;;;;;;5040555;28;20033;-66
2022/03/29 08:27:43;;;;;;;81.85;62.15;;;35.40;70.30;;;;;;5043603;28;20032;-64
2022/03/29 08:30:11;;;;;;;40.45;26.75;;;35.50;70.70;;;;;;5042195;28;20041;-64
2022/03/29 08:32:38;;;;;;;46.67;23.10;;;35.40;70.90;;;;;;5044124;28;20021;-63
2022/03/29 08:35:07;;;;;;;25.27;19.05;;;35.40;70.90;;;;;;5045008;28;20022;-63
2022/03/29 08:37:35;;;;;;;29.40;17.98;;;35.40;70.90;;;;;;5038823;28;20067;-66
2022/03/29 08:40:04;;;;;;;23.17;16.60;;;35.30;71.30;;;;;;5044471;28;20025;-63
2022/03/29 08:42:31;;;;;;;33.53;15.95;;;35.30;71.40;;;;;;5036953;28;20036;-63
2022/03/29 08:44:59;;;;;;;25.30;16.27;;;35.30;69.80;;;;;;5042197;28;20029;-64
2022/03/29 08:47:27;;;;;;;24.80;16.17;;;35.30;70.90;;;;;;5039689;28;20033;-63
2022/03/29 08:49:54;;;;;;;22.63;16.90;;;35.20;69.10;;;;;;5041603;28;20022;-63
2022/03/29 08:52:20;;;;;;;24.38;15.15;;;35.10;70.30;;;;;;5042956;28;20030;-64
2022/03/29 08:54:49;;;;;;;28.38;16.45;;;35.10;70.90;;;;;;5038906;28;20045;-64
2022/03/29 08:57:16;;;;;;;28.63;18.02;;;35.10;71.20;;;;;;5037261;28;20515;-65
2022/03/29 08:59:43;;;;;;;29.38;18.35;;;35.00;71.90;;;;;;5037827;28;20037;-64
2022/03/29 09:02:13;;;;;;;31.67;20.05;;;35.00;71.70;;;;;;5041401;28;20025;-63
2022/03/29 09:04:40;;;;;;;60.78;43.53;;;34.90;71.40;;;;;;5039611;28;20033;-67
2022/03/29 09:07:07;;;;;;;37.28;27.05;;;34.80;73.20;;;;;;5043164;28;20705;-64
2022/03/29 09:09:40;;;;;;;72.35;51.25;;;34.80;73.20;;;;;;5041776;28;20036;-65
2022/03/29 09:12:13;;;;;;;32.63;21.08;;;34.70;73.20;;;;;;5044401;28;20023;-62
2022/03/29 09:15:02;;;;;;;22.00;16.52;;;34.70;73.10;;;;;;5041605;28;20029;-66
2022/03/29 09:17:33;;;;;;;80.15;58.15;;;34.60;73.40;;;;;;5045292;28;20074;-63
2022/03/29 09:20:05;;;;;;;85.13;59.43;;;34.50;73.20;;;;;;5035134;28;20120;-62
2022/03/29 09:22:52;;;;;;;84.93;60.17;;;34.50;74.00;;;;;;5034851;28;20267;-63
2022/03/29 09:25:33;;;;;;;43.47;28.08;;;34.50;73.80;;;;;;5047146;28;20081;-62
2022/03/29 09:28:06;;;;;;;215.48;165.27;;;34.50;73.70;;;;;;5043754;28;20116;-63
2022/03/29 09:30:39;;;;;;;158.70;120.20;;;34.50;74.50;;;;;;5043105;28;20060;-65
2022/03/29 09:33:18;;;;;;;75.13;59.78;;;34.50;74.30;;;;;;5045740;28;20025;-63
2022/03/29 09:35:56;;;;;;;32.15;23.20;;;34.50;74.80;;;;;;5044289;28;20084;-66
2022/03/29 09:38:36;;;;;;;36.67;25.42;;;34.50;75.20;;;;;;5040426;28;20032;-63
2022/03/29 09:41:04;;;;;;;48.35;32.17;;;34.50;75.10;;;;;;5041852;28;20088;-63
2022/03/29 09:43:32;;;;;;;33.55;19.33;;;34.50;73.90;;;;;;5040860;28;20037;-65
2022/03/29 09:46:02;;;;;;;25.17;18.85;;;34.40;73.30;;;;;;5038352;28;20056;-66
2022/03/29 09:48:30;;;;;;;34.58;18.00;;;34.40;74.80;;;;;;5044716;28;20025;-66
2022/03/29 09:51:15;;;;;;;31.67;18.63;;;34.40;74.70;;;;;;5044317;28;20045;-65
2022/03/29 09:53:51;;;;;;;30.55;19.80;;;34.30;74.90;;;;;;5039982;28;20048;-65
2022/03/29 09:56:26;;;;;;;31.40;19.63;;;34.00;82.10;;;;;;5052231;28;20025;-66
2022/03/29 09:59:06;;;;;;;39.88;25.70;;;33.60;85.20;;;;;;5025629;28;20030;-65
2022/03/29 10:01:44;;;;;;;36.45;21.65;;;33.40;87.10;;;;;;5031073;28;20376;-66
2022/03/29 10:04:12;;;;;;;37.00;21.60;;;33.30;88.40;;;;;;5027223;28;20029;-63
2022/03/29 10:06:39;;;;;;;47.90;27.45;;;33.10;88.90;;;;;;5032903;28;20032;-63
2022/03/29 10:11:44;;;;;;;31.05;21.02;;;32.80;90.00;;;;;;5030792;28;20050;-64
2022/03/29 10:14:12;;;;;;;42.10;24.55;;;32.60;90.20;;;;;;5066601;22;20604;-63
2022/03/29 10:16:40;;;;;;;42.97;25.63;;;32.60;90.30;;;;;;5058259;28;20479;-63
2022/03/29 10:19:09;;;;;;;36.47;22.45;;;32.40;90.70;;;;;;5050085;28;20036;-63
2022/03/29 10:21:37;;;;;;;30.63;20.80;;;32.40;90.70;;;;;;5056097;28;20051;-64
2022/03/29 10:24:04;;;;;;;38.92;29.38;;;32.50;91.10;;;;;;5052759;28;20027;-63
2022/03/29 10:26:31;;;;;;;42.30;29.63;;;32.50;90.90;;;;;;5051658;28;20057;-63
2022/03/29 10:28:58;;;;;;;47.22;31.30;;;32.50;91.20;;;;;;5055457;28;20390;-63
2022/03/29 10:31:30;;;;;;;56.95;35.35;;;32.40;91.10;;;;;;5055297;28;20024;-64
2022/03/29 10:34:10;;;;;;;49.65;35.03;;;32.40;91.40;;;;;;5055216;28;20052;-63
2022/03/29 10:37:03;;;;;;;47.10;31.27;;;32.30;91.40;;;;;;5055647;28;20419;-63
2022/03/29 10:39:49;;;;;;;50.92;31.70;;;32.20;91.70;;;;;;5056367;28;20116;-63
2022/03/29 10:42:32;;;;;;;45.22;30.27;;;32.10;91.90;;;;;;5055181;28;20356;-63
2022/03/29 10:45:01;;;;;;;42.33;28.10;;;32.00;92.10;;;;;;5055762;28;20075;-63
2022/03/29 10:47:30;;;;;;;51.13;30.60;;;32.00;92.30;;;;;;5055167;28;20037;-62
2022/03/29 10:49:57;;;;;;;46.35;30.02;;;31.90;92.70;;;;;;5055339;28;20041;-62
2022/03/29 10:52:24;;;;;;;47.38;27.67;;;32.00;92.70;;;;;;5055086;28;20040;-63
2022/03/29 10:54:53;;;;;;;40.17;27.95;;;31.80;93.20;;;;;;5046012;28;20505;-62
2022/03/29 10:57:26;;;;;;;47.70;31.60;;;31.70;93.10;;;;;;5053421;28;20229;-63
2022/03/29 10:59:58;;;;;;;58.33;35.28;;;31.80;93.70;;;;;;5048763;28;20108;-63
2022/03/29 11:02:26;;;;;;;54.67;35.33;;;31.80;93.50;;;;;;5049012;28;20043;-65
2022/03/29 11:05:06;;;;;;;60.65;38.42;;;31.80;93.50;;;;;;5053270;28;20426;-64
2022/03/29 11:07:35;;;;;;;53.70;34.85;;;31.60;93.80;;;;;;5050344;28;20053;-62
2022/03/29 11:10:13;;;;;;;53.85;37.25;;;31.60;94.10;;;;;;5050162;28;20443;-61
2022/03/29 11:12:40;;;;;;;49.00;33.33;;;31.60;94.20;;;;;;5047049;28;20033;-62
2022/03/29 11:15:24;;;;;;;52.60;35.80;;;31.70;94.40;;;;;;5051136;28;20021;-66
2022/03/29 11:17:52;;;;;;;57.55;36.65;;;31.60;93.70;;;;;;5050745;28;20022;-63
2022/03/29 11:20:35;;;;;;;57.08;39.08;;;31.50;94.10;;;;;;5053674;28;20041;-65
2022/03/29 11:23:04;;;;;;;57.55;39.55;;;31.40;93.70;;;;;;5053772;28;20060;-64
2022/03/29 11:25:50;;;;;;;127.32;84.07;;;31.50;94.80;;;;;;5051842;28;20526;-64
2022/03/29 11:28:17;;;;;;;84.93;59.08;;;31.50;94.40;;;;;;5052733;28;20036;-64
2022/03/29 11:30:44;;;;;;;113.25;80.22;;;31.40;94.60;;;;;;5051374;28;20041;-64
2022/03/29 11:33:12;;;;;;;94.90;63.78;;;31.40;94.70;;;;;;5053162;28;20055;-64
2022/03/29 11:35:40;;;;;;;130.35;94.47;;;31.40;94.60;;;;;;5052414;28;20040;-64
2022/03/29 11:38:12;;;;;;;103.32;66.68;;;31.40;95.00;;;;;;5053753;28;20122;-64
2022/03/29 11:40:40;;;;;;;78.88;57.05;;;31.40;94.80;;;;;;5049095;28;20037;-64
2022/03/29 11:43:14;;;;;;;104.57;69.28;;;31.30;95.40;;;;;;5051519;28;20509;-64
2022/03/29 11:45:44;;;;;;;58.33;35.92;;;31.30;95.70;;;;;;5051207;28;20034;-65
2022/03/29 11:48:13;;;;;;;65.07;42.10;;;31.30;95.10;;;;;;5052057;28;20104;-65
2022/03/29 11:50:49;;;;;;;63.70;34.25;;;31.20;95.10;;;;;;5053102;28;20039;-66
2022/03/29 11:53:28;;;;;;;47.38;31.55;;;31.10;95.50;;;;;;5051565;28;20577;-63
2022/03/29 11:56:00;;;;;;;72.38;44.33;;;31.00;95.80;;;;;;5050762;28;20086;-63
2022/03/29 11:58:27;;;;;;;;;;;31.00;96.10;;;;;;5053615;28;20033;-64
2022/03/29 12:00:58;;;;;;;71.78;44.90;;;30.90;96.50;;;;;;5052137;28;19952;-64
2022/03/29 12:03:33;;;;;;;51.10;33.67;;;30.90;96.60;;;;;;5053475;28;20021;-64
2022/03/29 12:06:12;;;;;;;63.03;38.70;;;30.90;96.50;;;;;;5046859;28;20290;-65
2022/03/29 12:08:45;;;;;;;56.70;38.70;;;30.90;96.40;;;;;;5053263;28;20115;-65
2022/03/29 12:11:13;;;;;;;47.10;31.40;;;30.70;96.50;;;;;;5049342;28;20082;-64
2022/03/29 12:13:40;;;;;;;39.92;24.23;;;30.70;97.10;;;;;;5051411;28;20139;-65
2022/03/29 12:16:14;;;;;;;38.33;23.80;;;30.70;97.10;;;;;;5043708;28;20032;-65
2022/03/29 12:18:45;;;;;;;40.58;26.70;;;30.60;97.40;;;;;;5052279;28;20051;-65
2022/03/29 12:21:14;;;;;;;34.88;22.60;;;30.60;97.40;;;;;;5045852;28;20487;-66
2022/03/29 12:23:42;;;;;;;41.67;24.80;;;30.60;97.60;;;;;;5040113;28;20067;-65
2022/03/29 12:26:11;;;;;;;36.88;21.40;;;30.60;97.80;;;;;;5050644;28;20025;-65
2022/03/29 12:28:39;;;;;;;34.38;21.25;;;30.50;97.90;;;;;;5051745;28;20403;-65
2022/03/29 12:31:11;;;;;;;35.78;21.63;;;30.50;98.30;;;;;;5061222;28;20036;-65
2022/03/29 12:33:39;;;;;;;35.85;21.27;;;30.50;98.10;;;;;;5074097;28;20025;-65
2022/03/29 12:36:11;;;;;;;31.10;20.77;;;30.60;98.70;;;;;;5066217;28;20480;-66
2022/03/29 12:38:51;;;;;;;34.72;24.42;;;30.60;99.00;;;;;;5056181;28;20051;-66
2022/03/29 12:41:46;;;;;;;35.15;23.67;;;30.60;98.70;;;;;;5053989;28;20033;-62
2022/03/29 12:44:16;;;;;;;34.03;22.38;;;30.60;98.90;;;;;;5051890;28;20116;-63
2022/03/29 12:46:44;;;;;;;37.45;21.30;;;30.50;99.30;;;;;;5052924;28;20222;-63